sensor_id;sensor_type;location;lat;lon;timestamp;P1;durP1;ratioP1;P2;durP2;ratioP2
19301;SDS011;9785;59.362;12.152;2023-07-20T00:00:45;0.60;;;0.50;;
19301;SDS011;9785;59.362;12.152;2023-07-20T00:03:16;3.30;;;0.80;;
19301;SDS011;9785;59.362;12.152;2023-07-20T00:05:46;0.70;;;0.70;;
19301;SDS011;9785;59.362;12.152;2023-07-20T00:08:16;1.63;;;0.90;;
19301;SDS011;9785;59.362;12.152;2023-07-20T00:10:44;2.17;;;0.70;;
19301;SDS011;9785;59.362;12.152;2023-07-20T00:13:13;0.70;;;0.70;;
19301;SDS011;9785;59.362;12.152;2023-07-20T00:15:45;0.60;;;0.60;;
19301;SDS011;9785;59.362;12.152;2023-07-20T00:18:13;2.00;;;0.63;;
19301;SDS011;9785;59.362;12.152;2023-07-20T00:20:42;0.70;;;0.70;;
19301;SDS011;9785;59.362;12.152;2023-07-20T00:23:11;0.77;;;0.70;;
19301;SDS011;9785;59.362;12.152;2023-07-20T00:25:41;0.97;;;0.80;;
19301;SDS011;9785;59.362;12.152;2023-07-20T00:28:09;0.63;;;0.63;;
19301;SDS011;9785;59.362;12.152;2023-07-20T00:30:38;0.80;;;0.70;;
19301;SDS011;9785;59.362;12.152;2023-07-20T00:33:09;1.13;;;0.60;;
19301;SDS011;9785;59.362;12.152;2023-07-20T00:35:38;0.80;;;0.70;;
19301;SDS011;9785;59.362;12.152;2023-07-20T00:38:07;0.97;;;0.60;;
19301;SDS011;9785;59.362;12.152;2023-07-20T00:40:36;0.60;;;0.60;;
19301;SDS011;9785;59.362;12.152;2023-07-20T00:43:06;1.13;;;0.70;;
19301;SDS011;9785;59.362;12.152;2023-07-20T00:45:34;0.57;;;0.57;;
19301;SDS011;9785;59.362;12.152;2023-07-20T00:48:04;1.07;;;0.80;;
19301;SDS011;9785;59.362;12.152;2023-07-20T00:50:34;1.17;;;0.60;;
19301;SDS011;9785;59.362;12.152;2023-07-20T00:53:03;2.47;;;0.90;;
19301;SDS011;9785;59.362;12.152;2023-07-20T00:55:32;0.70;;;0.70;;
19301;SDS011;9785;59.362;12.152;2023-07-20T00:58:01;0.60;;;0.60;;
19301;SDS011;9785;59.362;12.152;2023-07-20T01:00:31;0.50;;;0.50;;
19301;SDS011;9785;59.362;12.152;2023-07-20T01:03:00;0.60;;;0.60;;
19301;SDS011;9785;59.362;12.152;2023-07-20T01:05:30;1.57;;;0.70;;
19301;SDS011;9785;59.362;12.152;2023-07-20T01:08:04;0.93;;;0.67;;
19301;SDS011;9785;59.362;12.152;2023-07-20T01:10:36;3.43;;;0.90;;
19301;SDS011;9785;59.362;12.152;2023-07-20T01:13:07;1.23;;;0.73;;
19301;SDS011;9785;59.362;12.152;2023-07-20T01:15:39;2.10;;;0.47;;
19301;SDS011;9785;59.362;12.152;2023-07-20T01:18:08;1.07;;;0.60;;
19301;SDS011;9785;59.362;12.152;2023-07-20T01:20:36;0.80;;;0.80;;
19301;SDS011;9785;59.362;12.152;2023-07-20T01:25:57;2.47;;;0.60;;
19301;SDS011;9785;59.362;12.152;2023-07-20T01:28:39;0.70;;;0.60;;
19301;SDS011;9785;59.362;12.152;2023-07-20T01:31:16;1.00;;;0.50;;
19301;SDS011;9785;59.362;12.152;2023-07-20T01:33:45;0.93;;;0.70;;
19301;SDS011;9785;59.362;12.152;2023-07-20T01:36:15;0.80;;;0.80;;
19301;SDS011;9785;59.362;12.152;2023-07-20T01:38:44;0.97;;;0.63;;
19301;SDS011;9785;59.362;12.152;2023-07-20T01:41:14;1.07;;;0.53;;
19301;SDS011;9785;59.362;12.152;2023-07-20T01:43:43;0.67;;;0.67;;
19301;SDS011;9785;59.362;12.152;2023-07-20T01:46:11;1.53;;;0.60;;
19301;SDS011;9785;59.362;12.152;2023-07-20T01:48:41;0.60;;;0.60;;
19301;SDS011;9785;59.362;12.152;2023-07-20T01:51:12;0.70;;;0.70;;
19301;SDS011;9785;59.362;12.152;2023-07-20T01:53:40;3.53;;;0.70;;
19301;SDS011;9785;59.362;12.152;2023-07-20T01:56:09;2.00;;;0.50;;
19301;SDS011;9785;59.362;12.152;2023-07-20T01:58:38;0.60;;;0.60;;
19301;SDS011;9785;59.362;12.152;2023-07-20T02:01:07;0.60;;;0.60;;
19301;SDS011;9785;59.362;12.152;2023-07-20T02:03:36;1.27;;;0.50;;
19301;SDS011;9785;59.362;12.152;2023-07-20T02:06:06;0.70;;;0.70;;
19301;SDS011;9785;59.362;12.152;2023-07-20T02:08:34;0.70;;;0.70;;
19301;SDS011;9785;59.362;12.152;2023-07-20T02:11:03;1.10;;;0.70;;
19301;SDS011;9785;59.362;12.152;2023-07-20T02:13:32;2.10;;;0.90;;
19301;SDS011;9785;59.362;12.152;2023-07-20T02:16:00;1.60;;;0.70;;
19301;SDS011;9785;59.362;12.152;2023-07-20T02:18:29;2.03;;;0.60;;
19301;SDS011;9785;59.362;12.152;2023-07-20T02:20:57;1.30;;;0.67;;
19301;SDS011;9785;59.362;12.152;2023-07-20T02:23:28;0.60;;;0.60;;
19301;SDS011;9785;59.362;12.152;2023-07-20T02:25:57;0.83;;;0.77;;
19301;SDS011;9785;59.362;12.152;2023-07-20T02:28:25;1.60;;;0.63;;
19301;SDS011;9785;59.362;12.152;2023-07-20T02:30:55;1.57;;;0.60;;
19301;SDS011;9785;59.362;12.152;2023-07-20T02:33:24;1.67;;;0.90;;
19301;SDS011;9785;59.362;12.152;2023-07-20T02:35:53;4.13;;;0.70;;
19301;SDS011;9785;59.362;12.152;2023-07-20T02:38:21;4.93;;;0.70;;
19301;SDS011;9785;59.362;12.152;2023-07-20T02:40:51;1.60;;;0.63;;
19301;SDS011;9785;59.362;12.152;2023-07-20T02:43:20;2.40;;;0.80;;
19301;SDS011;9785;59.362;12.152;2023-07-20T02:45:50;0.50;;;0.50;;
19301;SDS011;9785;59.362;12.152;2023-07-20T02:48:18;0.67;;;0.67;;
19301;SDS011;9785;59.362;12.152;2023-07-20T02:50:47;3.43;;;0.73;;
19301;SDS011;9785;59.362;12.152;2023-07-20T02:53:16;3.03;;;0.80;;
19301;SDS011;9785;59.362;12.152;2023-07-20T02:55:44;7.23;;;0.70;;
19301;SDS011;9785;59.362;12.152;2023-07-20T02:58:15;0.70;;;0.70;;
19301;SDS011;9785;59.362;12.152;2023-07-20T03:00:44;5.30;;;0.90;;
19301;SDS011;9785;59.362;12.152;2023-07-20T03:03:13;0.73;;;0.73;;
19301;SDS011;9785;59.362;12.152;2023-07-20T03:05:42;0.70;;;0.70;;
19301;SDS011;9785;59.362;12.152;2023-07-20T03:08:10;0.63;;;0.63;;
19301;SDS011;9785;59.362;12.152;2023-07-20T03:10:40;0.73;;;0.73;;
19301;SDS011;9785;59.362;12.152;2023-07-20T03:13:09;0.70;;;0.70;;
19301;SDS011;9785;59.362;12.152;2023-07-20T03:15:40;1.03;;;0.70;;
19301;SDS011;9785;59.362;12.152;2023-07-20T03:18:09;0.90;;;0.90;;
19301;SDS011;9785;59.362;12.152;2023-07-20T03:20:38;0.97;;;0.70;;
19301;SDS011;9785;59.362;12.152;2023-07-20T03:23:07;0.80;;;0.80;;
19301;SDS011;9785;59.362;12.152;2023-07-20T03:25:35;1.37;;;0.60;;
19301;SDS011;9785;59.362;12.152;2023-07-20T03:28:05;0.63;;;0.63;;
19301;SDS011;9785;59.362;12.152;2023-07-20T03:30:34;0.97;;;0.60;;
19301;SDS011;9785;59.362;12.152;2023-07-20T03:33:04;1.03;;;0.97;;
19301;SDS011;9785;59.362;12.152;2023-07-20T03:35:33;0.80;;;0.80;;
19301;SDS011;9785;59.362;12.152;2023-07-20T03:38:01;0.80;;;0.80;;
19301;SDS011;9785;59.362;12.152;2023-07-20T03:40:30;0.80;;;0.80;;
19301;SDS011;9785;59.362;12.152;2023-07-20T03:42:59;0.90;;;0.80;;
19301;SDS011;9785;59.362;12.152;2023-07-20T03:45:28;2.50;;;0.90;;
19301;SDS011;9785;59.362;12.152;2023-07-20T03:47:57;0.70;;;0.70;;
19301;SDS011;9785;59.362;12.152;2023-07-20T03:50:27;0.90;;;0.60;;
19301;SDS011;9785;59.362;12.152;2023-07-20T03:52:56;0.60;;;0.60;;
19301;SDS011;9785;59.362;12.152;2023-07-20T03:55:24;0.67;;;0.67;;
19301;SDS011;9785;59.362;12.152;2023-07-20T03:57:53;0.60;;;0.60;;
19301;SDS011;9785;59.362;12.152;2023-07-20T04:00:22;1.53;;;0.60;;
19301;SDS011;9785;59.362;12.152;2023-07-20T04:02:50;1.07;;;0.60;;
19301;SDS011;9785;59.362;12.152;2023-07-20T04:05:19;0.63;;;0.50;;
19301;SDS011;9785;59.362;12.152;2023-07-20T04:07:49;0.70;;;0.70;;
19301;SDS011;9785;59.362;12.152;2023-07-20T04:10:18;0.50;;;0.50;;
19301;SDS011;9785;59.362;12.152;2023-07-20T04:12:47;0.70;;;0.70;;
19301;SDS011;9785;59.362;12.152;2023-07-20T04:15:16;0.80;;;0.80;;
19301;SDS011;9785;59.362;12.152;2023-07-20T04:17:45;0.80;;;0.70;;
19301;SDS011;9785;59.362;12.152;2023-07-20T04:20:14;0.50;;;0.50;;
19301;SDS011;9785;59.362;12.152;2023-07-20T04:22:44;1.10;;;0.60;;
19301;SDS011;9785;59.362;12.152;2023-07-20T04:25:14;0.60;;;0.60;;
19301;SDS011;9785;59.362;12.152;2023-07-20T04:27:43;2.20;;;0.60;;
19301;SDS011;9785;59.362;12.152;2023-07-20T04:30:12;0.63;;;0.63;;
19301;SDS011;9785;59.362;12.152;2023-07-20T04:32:42;0.60;;;0.60;;
19301;SDS011;9785;59.362;12.152;2023-07-20T04:35:16;3.50;;;0.60;;
19301;SDS011;9785;59.362;12.152;2023-07-20T04:37:44;0.60;;;0.60;;
19301;SDS011;9785;59.362;12.152;2023-07-20T04:40:15;0.43;;;0.40;;
19301;SDS011;9785;59.362;12.152;2023-07-20T04:42:43;0.67;;;0.60;;
19301;SDS011;9785;59.362;12.152;2023-07-20T04:45:12;0.60;;;0.60;;
19301;SDS011;9785;59.362;12.152;2023-07-20T04:47:41;0.60;;;0.60;;
19301;SDS011;9785;59.362;12.152;2023-07-20T04:50:09;4.07;;;0.43;;
19301;SDS011;9785;59.362;12.152;2023-07-20T04:52:38;0.50;;;0.50;;
19301;SDS011;9785;59.362;12.152;2023-07-20T04:55:08;1.30;;;0.60;;
19301;SDS011;9785;59.362;12.152;2023-07-20T04:57:38;0.60;;;0.60;;
19301;SDS011;9785;59.362;12.152;2023-07-20T05:00:07;2.10;;;0.50;;
19301;SDS011;9785;59.362;12.152;2023-07-20T05:02:37;0.50;;;0.50;;
19301;SDS011;9785;59.362;12.152;2023-07-20T05:05:06;1.10;;;0.80;;
19301;SDS011;9785;59.362;12.152;2023-07-20T05:07:35;0.50;;;0.50;;
19301;SDS011;9785;59.362;12.152;2023-07-20T05:10:04;0.57;;;0.50;;
19301;SDS011;9785;59.362;12.152;2023-07-20T05:12:33;0.63;;;0.53;;
19301;SDS011;9785;59.362;12.152;2023-07-20T05:15:03;0.93;;;0.50;;
19301;SDS011;9785;59.362;12.152;2023-07-20T05:17:32;0.40;;;0.40;;
19301;SDS011;9785;59.362;12.152;2023-07-20T05:20:01;0.47;;;0.47;;
19301;SDS011;9785;59.362;12.152;2023-07-20T05:22:31;0.50;;;0.50;;
19301;SDS011;9785;59.362;12.152;2023-07-20T05:25:00;0.50;;;0.50;;
19301;SDS011;9785;59.362;12.152;2023-07-20T05:27:28;0.40;;;0.40;;
19301;SDS011;9785;59.362;12.152;2023-07-20T05:29:57;0.67;;;0.50;;
19301;SDS011;9785;59.362;12.152;2023-07-20T05:32:27;0.40;;;0.40;;
19301;SDS011;9785;59.362;12.152;2023-07-20T05:34:56;0.40;;;0.40;;
19301;SDS011;9785;59.362;12.152;2023-07-20T05:37:24;0.50;;;0.50;;
19301;SDS011;9785;59.362;12.152;2023-07-20T05:39:53;0.40;;;0.40;;
19301;SDS011;9785;59.362;12.152;2023-07-20T05:42:22;0.43;;;0.43;;
19301;SDS011;9785;59.362;12.152;2023-07-20T05:44:50;0.47;;;0.47;;
19301;SDS011;9785;59.362;12.152;2023-07-20T05:47:20;0.30;;;0.30;;
19301;SDS011;9785;59.362;12.152;2023-07-20T05:49:50;1.80;;;0.40;;
19301;SDS011;9785;59.362;12.152;2023-07-20T05:52:19;0.30;;;0.30;;
19301;SDS011;9785;59.362;12.152;2023-07-20T05:54:47;0.63;;;0.33;;
19301;SDS011;9785;59.362;12.152;2023-07-20T05:57:16;0.33;;;0.33;;
19301;SDS011;9785;59.362;12.152;2023-07-20T05:59:45;0.30;;;0.30;;
19301;SDS011;9785;59.362;12.152;2023-07-20T06:02:13;0.37;;;0.37;;
19301;SDS011;9785;59.362;12.152;2023-07-20T06:04:42;0.30;;;0.30;;
19301;SDS011;9785;59.362;12.152;2023-07-20T06:07:12;0.40;;;0.40;;
19301;SDS011;9785;59.362;12.152;2023-07-20T06:09:41;0.30;;;0.30;;
19301;SDS011;9785;59.362;12.152;2023-07-20T06:12:09;0.73;;;0.50;;
19301;SDS011;9785;59.362;12.152;2023-07-20T06:14:38;0.43;;;0.43;;
19301;SDS011;9785;59.362;12.152;2023-07-20T06:17:06;0.60;;;0.60;;
19301;SDS011;9785;59.362;12.152;2023-07-20T06:19:35;0.40;;;0.40;;
19301;SDS011;9785;59.362;12.152;2023-07-20T06:22:04;0.60;;;0.50;;
19301;SDS011;9785;59.362;12.152;2023-07-20T06:24:34;0.40;;;0.40;;
19301;SDS011;9785;59.362;12.152;2023-07-20T06:27:03;0.30;;;0.30;;
19301;SDS011;9785;59.362;12.152;2023-07-20T06:29:32;0.40;;;0.33;;
19301;SDS011;9785;59.362;12.152;2023-07-20T06:32:00;0.30;;;0.30;;
19301;SDS011;9785;59.362;12.152;2023-07-20T06:34:29;0.30;;;0.30;;
19301;SDS011;9785;59.362;12.152;2023-07-20T06:37:03;0.30;;;0.30;;
19301;SDS011;9785;59.362;12.152;2023-07-20T06:39:32;0.30;;;0.30;;
19301;SDS011;9785;59.362;12.152;2023-07-20T06:42:05;0.40;;;0.40;;
19301;SDS011;9785;59.362;12.152;2023-07-20T06:44:34;0.30;;;0.30;;
19301;SDS011;9785;59.362;12.152;2023-07-20T06:47:02;0.30;;;0.30;;
19301;SDS011;9785;59.362;12.152;2023-07-20T06:49:31;1.50;;;0.40;;
19301;SDS011;9785;59.362;12.152;2023-07-20T06:52:00;0.30;;;0.30;;
19301;SDS011;9785;59.362;12.152;2023-07-20T06:54:29;0.23;;;0.23;;
19301;SDS011;9785;59.362;12.152;2023-07-20T06:57:01;0.33;;;0.33;;
19301;SDS011;9785;59.362;12.152;2023-07-20T06:59:34;0.20;;;0.20;;
19301;SDS011;9785;59.362;12.152;2023-07-20T07:02:07;0.43;;;0.43;;
19301;SDS011;9785;59.362;12.152;2023-07-20T07:04:39;0.30;;;0.30;;
19301;SDS011;9785;59.362;12.152;2023-07-20T07:07:07;0.20;;;0.20;;
19301;SDS011;9785;59.362;12.152;2023-07-20T07:09:36;0.20;;;0.20;;
19301;SDS011;9785;59.362;12.152;2023-07-20T07:12:05;0.30;;;0.30;;
19301;SDS011;9785;59.362;12.152;2023-07-20T07:14:35;0.43;;;0.40;;
19301;SDS011;9785;59.362;12.152;2023-07-20T07:17:05;0.20;;;0.20;;
19301;SDS011;9785;59.362;12.152;2023-07-20T07:19:33;0.17;;;0.17;;
19301;SDS011;9785;59.362;12.152;2023-07-20T07:22:04;0.40;;;0.20;;
19301;SDS011;9785;59.362;12.152;2023-07-20T07:24:32;0.40;;;0.20;;
19301;SDS011;9785;59.362;12.152;2023-07-20T07:27:01;1.40;;;0.20;;
19301;SDS011;9785;59.362;12.152;2023-07-20T07:29:30;0.30;;;0.30;;
19301;SDS011;9785;59.362;12.152;2023-07-20T07:32:00;0.77;;;0.30;;
19301;SDS011;9785;59.362;12.152;2023-07-20T07:34:29;0.20;;;0.20;;
19301;SDS011;9785;59.362;12.152;2023-07-20T07:37:01;0.20;;;0.20;;
19301;SDS011;9785;59.362;12.152;2023-07-20T07:39:30;0.10;;;0.10;;
19301;SDS011;9785;59.362;12.152;2023-07-20T07:42:01;0.20;;;0.20;;
19301;SDS011;9785;59.362;12.152;2023-07-20T07:44:29;0.17;;;0.17;;
19301;SDS011;9785;59.362;12.152;2023-07-20T07:46:58;0.27;;;0.27;;
19301;SDS011;9785;59.362;12.152;2023-07-20T07:49:28;0.30;;;0.10;;
19301;SDS011;9785;59.362;12.152;2023-07-20T07:51:57;0.30;;;0.30;;
19301;SDS011;9785;59.362;12.152;2023-07-20T07:54:28;0.07;;;0.07;;
19301;SDS011;9785;59.362;12.152;2023-07-20T07:56:57;2.00;;;0.20;;
19301;SDS011;9785;59.362;12.152;2023-07-20T07:59:26;0.20;;;0.20;;
19301;SDS011;9785;59.362;12.152;2023-07-20T08:01:54;0.20;;;0.20;;
19301;SDS011;9785;59.362;12.152;2023-07-20T08:04:24;0.17;;;0.17;;
19301;SDS011;9785;59.362;12.152;2023-07-20T08:06:55;0.10;;;0.10;;
19301;SDS011;9785;59.362;12.152;2023-07-20T08:09:24;0.20;;;0.20;;
19301;SDS011;9785;59.362;12.152;2023-07-20T08:11:52;0.20;;;0.20;;
19301;SDS011;9785;59.362;12.152;2023-07-20T08:14:21;0.10;;;0.10;;
19301;SDS011;9785;59.362;12.152;2023-07-20T08:16:49;0.30;;;0.10;;
19301;SDS011;9785;59.362;12.152;2023-07-20T08:19:19;2.83;;;0.30;;
19301;SDS011;9785;59.362;12.152;2023-07-20T08:21:48;1.40;;;0.30;;
19301;SDS011;9785;59.362;12.152;2023-07-20T08:24:18;0.20;;;0.20;;
19301;SDS011;9785;59.362;12.152;2023-07-20T08:26:47;0.23;;;0.20;;
19301;SDS011;9785;59.362;12.152;2023-07-20T08:29:15;1.60;;;0.20;;
19301;SDS011;9785;59.362;12.152;2023-07-20T08:31:44;0.10;;;0.10;;
19301;SDS011;9785;59.362;12.152;2023-07-20T08:34:13;0.20;;;0.20;;
19301;SDS011;9785;59.362;12.152;2023-07-20T08:36:56;0.00;;;0.00;;
19301;SDS011;9785;59.362;12.152;2023-07-20T08:39:26;0.03;;;0.03;;
19301;SDS011;9785;59.362;12.152;2023-07-20T08:41:55;0.40;;;0.10;;
19301;SDS011;9785;59.362;12.152;2023-07-20T08:44:24;0.20;;;0.20;;
19301;SDS011;9785;59.362;12.152;2023-07-20T08:46:53;0.17;;;0.17;;
19301;SDS011;9785;59.362;12.152;2023-07-20T08:49:22;0.17;;;0.17;;
19301;SDS011;9785;59.362;12.152;2023-07-20T08:51:51;0.10;;;0.10;;
19301;SDS011;9785;59.362;12.152;2023-07-20T08:54:21;0.10;;;0.10;;
19301;SDS011;9785;59.362;12.152;2023-07-20T08:56:50;0.17;;;0.17;;
19301;SDS011;9785;59.362;12.152;2023-07-20T08:59:19;0.00;;;0.00;;
19301;SDS011;9785;59.362;12.152;2023-07-20T09:01:48;0.10;;;0.10;;
19301;SDS011;9785;59.362;12.152;2023-07-20T09:04:18;0.10;;;0.10;;
19301;SDS011;9785;59.362;12.152;2023-07-20T09:06:47;0.10;;;0.10;;
19301;SDS011;9785;59.362;12.152;2023-07-20T09:09:17;0.10;;;0.10;;
19301;SDS011;9785;59.362;12.152;2023-07-20T09:11:46;0.17;;;0.17;;
19301;SDS011;9785;59.362;12.152;2023-07-20T09:14:17;0.67;;;0.20;;
19301;SDS011;9785;59.362;12.152;2023-07-20T09:16:49;0.20;;;0.20;;
19301;SDS011;9785;59.362;12.152;2023-07-20T09:19:18;0.10;;;0.10;;
19301;SDS011;9785;59.362;12.152;2023-07-20T09:21:47;0.10;;;0.10;;
19301;SDS011;9785;59.362;12.152;2023-07-20T09:24:17;0.20;;;0.20;;
19301;SDS011;9785;59.362;12.152;2023-07-20T09:26:47;0.00;;;0.00;;
19301;SDS011;9785;59.362;12.152;2023-07-20T09:29:19;0.20;;;0.20;;
19301;SDS011;9785;59.362;12.152;2023-07-20T09:31:58;0.10;;;0.10;;
19301;SDS011;9785;59.362;12.152;2023-07-20T09:34:28;0.10;;;0.10;;
19301;SDS011;9785;59.362;12.152;2023-07-20T09:37:01;0.20;;;0.20;;
19301;SDS011;9785;59.362;12.152;2023-07-20T09:39:31;0.20;;;0.20;;
19301;SDS011;9785;59.362;12.152;2023-07-20T09:42:00;0.10;;;0.10;;
19301;SDS011;9785;59.362;12.152;2023-07-20T09:44:33;0.23;;;0.23;;
19301;SDS011;9785;59.362;12.152;2023-07-20T09:47:05;0.20;;;0.20;;
19301;SDS011;9785;59.362;12.152;2023-07-20T09:49:37;0.20;;;0.20;;
19301;SDS011;9785;59.362;12.152;2023-07-20T09:52:10;0.40;;;0.40;;
19301;SDS011;9785;59.362;12.152;2023-07-20T09:54:40;0.10;;;0.10;;
19301;SDS011;9785;59.362;12.152;2023-07-20T09:57:11;0.17;;;0.17;;
19301;SDS011;9785;59.362;12.152;2023-07-20T09:59:42;0.20;;;0.20;;
19301;SDS011;9785;59.362;12.152;2023-07-20T10:02:11;0.20;;;0.20;;
19301;SDS011;9785;59.362;12.152;2023-07-20T10:04:42;0.20;;;0.20;;
19301;SDS011;9785;59.362;12.152;2023-07-20T10:07:11;0.30;;;0.30;;
19301;SDS011;9785;59.362;12.152;2023-07-20T10:09:40;0.20;;;0.20;;
19301;SDS011;9785;59.362;12.152;2023-07-20T10:12:12;0.30;;;0.23;;
19301;SDS011;9785;59.362;12.152;2023-07-20T10:14:54;0.10;;;0.10;;
19301;SDS011;9785;59.362;12.152;2023-07-20T10:17:28;0.20;;;0.20;;
19301;SDS011;9785;59.362;12.152;2023-07-20T10:19:57;0.53;;;0.20;;
19301;SDS011;9785;59.362;12.152;2023-07-20T10:22:32;0.20;;;0.20;;
19301;SDS011;9785;59.362;12.152;2023-07-20T10:25:07;0.33;;;0.23;;
19301;SDS011;9785;59.362;12.152;2023-07-20T10:27:36;0.30;;;0.30;;
19301;SDS011;9785;59.362;12.152;2023-07-20T10:30:07;0.13;;;0.13;;
19301;SDS011;9785;59.362;12.152;2023-07-20T10:32:36;0.20;;;0.20;;
19301;SDS011;9785;59.362;12.152;2023-07-20T10:35:11;0.20;;;0.20;;
19301;SDS011;9785;59.362;12.152;2023-07-20T10:37:47;0.33;;;0.33;;
19301;SDS011;9785;59.362;12.152;2023-07-20T10:40:28;0.20;;;0.20;;
19301;SDS011;9785;59.362;12.152;2023-07-20T10:42:58;0.50;;;0.20;;
19301;SDS011;9785;59.362;12.152;2023-07-20T10:45:35;0.20;;;0.20;;
19301;SDS011;9785;59.362;12.152;2023-07-20T10:48:04;0.20;;;0.20;;
19301;SDS011;9785;59.362;12.152;2023-07-20T10:50:33;0.10;;;0.10;;
19301;SDS011;9785;59.362;12.152;2023-07-20T10:53:05;0.20;;;0.20;;
19301;SDS011;9785;59.362;12.152;2023-07-20T10:55:39;0.10;;;0.10;;
19301;SDS011;9785;59.362;12.152;2023-07-20T10:58:08;1.60;;;0.20;;
19301;SDS011;9785;59.362;12.152;2023-07-20T11:00:39;0.20;;;0.20;;
19301;SDS011;9785;59.362;12.152;2023-07-20T11:03:26;0.40;;;0.40;;
19301;SDS011;9785;59.362;12.152;2023-07-20T11:08:44;0.50;;;0.10;;
19301;SDS011;9785;59.362;12.152;2023-07-20T11:11:22;0.10;;;0.10;;
19301;SDS011;9785;59.362;12.152;2023-07-20T11:13:55;0.20;;;0.20;;
19301;SDS011;9785;59.362;12.152;2023-07-20T11:16:35;1.17;;;0.30;;
19301;SDS011;9785;59.362;12.152;2023-07-20T11:19:04;0.10;;;0.10;;
19301;SDS011;9785;59.362;12.152;2023-07-20T11:21:37;0.13;;;0.10;;
19301;SDS011;9785;59.362;12.152;2023-07-20T11:24:25;0.10;;;0.10;;
19301;SDS011;9785;59.362;12.152;2023-07-20T11:26:54;0.10;;;0.10;;
19301;SDS011;9785;59.362;12.152;2023-07-20T11:29:23;0.27;;;0.27;;
19301;SDS011;9785;59.362;12.152;2023-07-20T11:31:57;0.20;;;0.20;;
19301;SDS011;9785;59.362;12.152;2023-07-20T11:34:26;0.10;;;0.10;;
19301;SDS011;9785;59.362;12.152;2023-07-20T11:36:55;0.10;;;0.10;;
19301;SDS011;9785;59.362;12.152;2023-07-20T11:39:26;0.40;;;0.20;;
19301;SDS011;9785;59.362;12.152;2023-07-20T11:41:56;0.40;;;0.30;;
19301;SDS011;9785;59.362;12.152;2023-07-20T11:44:25;0.20;;;0.20;;
19301;SDS011;9785;59.362;12.152;2023-07-20T11:47:03;0.10;;;0.10;;
19301;SDS011;9785;59.362;12.152;2023-07-20T11:49:34;0.20;;;0.20;;
19301;SDS011;9785;59.362;12.152;2023-07-20T11:52:04;0.13;;;0.13;;
19301;SDS011;9785;59.362;12.152;2023-07-20T11:54:34;0.10;;;0.10;;
19301;SDS011;9785;59.362;12.152;2023-07-20T11:57:03;0.20;;;0.20;;
19301;SDS011;9785;59.362;12.152;2023-07-20T11:59:32;0.00;;;0.00;;
19301;SDS011;9785;59.362;12.152;2023-07-20T12:02:02;0.20;;;0.20;;
19301;SDS011;9785;59.362;12.152;2023-07-20T12:04:31;0.20;;;0.20;;
19301;SDS011;9785;59.362;12.152;2023-07-20T12:07:00;0.20;;;0.20;;
19301;SDS011;9785;59.362;12.152;2023-07-20T12:09:29;0.10;;;0.10;;
19301;SDS011;9785;59.362;12.152;2023-07-20T12:12:18;0.20;;;0.20;;
19301;SDS011;9785;59.362;12.152;2023-07-20T12:14:47;0.20;;;0.20;;
19301;SDS011;9785;59.362;12.152;2023-07-20T12:17:17;0.10;;;0.10;;
19301;SDS011;9785;59.362;12.152;2023-07-20T12:19:46;0.10;;;0.10;;
19301;SDS011;9785;59.362;12.152;2023-07-20T12:22:15;0.20;;;0.20;;
19301;SDS011;9785;59.362;12.152;2023-07-20T12:24:43;0.40;;;0.13;;
19301;SDS011;9785;59.362;12.152;2023-07-20T12:27:13;0.03;;;0.03;;
19301;SDS011;9785;59.362;12.152;2023-07-20T12:29:45;0.13;;;0.13;;
19301;SDS011;9785;59.362;12.152;2023-07-20T12:32:13;0.20;;;0.10;;
19301;SDS011;9785;59.362;12.152;2023-07-20T12:34:43;0.00;;;0.00;;
19301;SDS011;9785;59.362;12.152;2023-07-20T12:37:13;1.10;;;0.10;;
19301;SDS011;9785;59.362;12.152;2023-07-20T12:39:41;0.10;;;0.10;;
19301;SDS011;9785;59.362;12.152;2023-07-20T12:42:13;0.10;;;0.10;;
19301;SDS011;9785;59.362;12.152;2023-07-20T12:44:43;0.10;;;0.10;;
19301;SDS011;9785;59.362;12.152;2023-07-20T12:47:12;0.20;;;0.20;;
19301;SDS011;9785;59.362;12.152;2023-07-20T12:49:41;0.45;;;0.13;;
19301;SDS011;9785;59.362;12.152;2023-07-20T12:52:13;0.17;;;0.17;;
19301;SDS011;9785;59.362;12.152;2023-07-20T12:54:41;0.10;;;0.10;;
19301;SDS011;9785;59.362;12.152;2023-07-20T12:57:10;0.10;;;0.10;;
19301;SDS011;9785;59.362;12.152;2023-07-20T12:59:39;0.10;;;0.10;;
19301;SDS011;9785;59.362;12.152;2023-07-20T13:02:07;1.33;;;0.20;;
19301;SDS011;9785;59.362;12.152;2023-07-20T13:04:36;3.50;;;0.17;;
19301;SDS011;9785;59.362;12.152;2023-07-20T13:07:05;0.10;;;0.10;;
19301;SDS011;9785;59.362;12.152;2023-07-20T13:09:37;0.10;;;0.10;;
19301;SDS011;9785;59.362;12.152;2023-07-20T13:12:07;0.10;;;0.10;;
19301;SDS011;9785;59.362;12.152;2023-07-20T13:14:35;0.10;;;0.10;;
19301;SDS011;9785;59.362;12.152;2023-07-20T13:17:04;0.00;;;0.00;;
19301;SDS011;9785;59.362;12.152;2023-07-20T13:19:33;0.00;;;0.00;;
19301;SDS011;9785;59.362;12.152;2023-07-20T13:22:01;0.60;;;0.00;;
19301;SDS011;9785;59.362;12.152;2023-07-20T13:24:30;0.10;;;0.10;;
19301;SDS011;9785;59.362;12.152;2023-07-20T13:27:00;0.10;;;0.10;;
19301;SDS011;9785;59.362;12.152;2023-07-20T13:29:29;0.17;;;0.00;;
19301;SDS011;9785;59.362;12.152;2023-07-20T13:31:58;0.00;;;0.00;;
19301;SDS011;9785;59.362;12.152;2023-07-20T13:34:27;0.13;;;0.10;;
19301;SDS011;9785;59.362;12.152;2023-07-20T13:36:57;0.00;;;0.00;;
19301;SDS011;9785;59.362;12.152;2023-07-20T13:39:26;0.00;;;0.00;;
19301;SDS011;9785;59.362;12.152;2023-07-20T13:41:55;0.00;;;0.00;;
19301;SDS011;9785;59.362;12.152;2023-07-20T13:44:25;0.13;;;0.00;;
19301;SDS011;9785;59.362;12.152;2023-07-20T13:46:56;0.00;;;0.00;;
19301;SDS011;9785;59.362;12.152;2023-07-20T13:49:45;0.10;;;0.10;;
19301;SDS011;9785;59.362;12.152;2023-07-20T13:52:14;0.63;;;0.10;;
19301;SDS011;9785;59.362;12.152;2023-07-20T13:54:45;0.40;;;0.07;;
19301;SDS011;9785;59.362;12.152;2023-07-20T13:57:18;0.10;;;0.00;;
19301;SDS011;9785;59.362;12.152;2023-07-20T13:59:48;0.00;;;0.00;;
19301;SDS011;9785;59.362;12.152;2023-07-20T14:02:17;0.63;;;0.10;;
19301;SDS011;9785;59.362;12.152;2023-07-20T14:04:49;1.50;;;0.00;;
19301;SDS011;9785;59.362;12.152;2023-07-20T14:07:37;0.47;;;0.00;;
19301;SDS011;9785;59.362;12.152;2023-07-20T14:10:06;0.10;;;0.10;;
19301;SDS011;9785;59.362;12.152;2023-07-20T14:12:38;0.75;;;0.03;;
19301;SDS011;9785;59.362;12.152;2023-07-20T14:15:09;0.10;;;0.10;;
19301;SDS011;9785;59.362;12.152;2023-07-20T14:17:38;0.00;;;0.00;;
19301;SDS011;9785;59.362;12.152;2023-07-20T14:20:07;0.03;;;0.03;;
19301;SDS011;9785;59.362;12.152;2023-07-20T14:22:38;0.30;;;0.30;;
19301;SDS011;9785;59.362;12.152;2023-07-20T14:25:08;0.00;;;0.00;;
19301;SDS011;9785;59.362;12.152;2023-07-20T14:27:37;0.10;;;0.10;;
19301;SDS011;9785;59.362;12.152;2023-07-20T14:30:06;0.10;;;0.10;;
19301;SDS011;9785;59.362;12.152;2023-07-20T14:32:36;0.00;;;0.00;;
19301;SDS011;9785;59.362;12.152;2023-07-20T14:35:06;0.00;;;0.00;;
19301;SDS011;9785;59.362;12.152;2023-07-20T14:37:36;0.00;;;0.00;;
19301;SDS011;9785;59.362;12.152;2023-07-20T14:40:05;0.28;;;0.10;;
19301;SDS011;9785;59.362;12.152;2023-07-20T14:42:34;0.10;;;0.00;;
19301;SDS011;9785;59.362;12.152;2023-07-20T14:45:04;0.10;;;0.10;;
19301;SDS011;9785;59.362;12.152;2023-07-20T14:47:33;0.00;;;0.00;;
19301;SDS011;9785;59.362;12.152;2023-07-20T14:50:04;0.30;;;0.10;;
19301;SDS011;9785;59.362;12.152;2023-07-20T14:52:33;0.10;;;0.10;;
19301;SDS011;9785;59.362;12.152;2023-07-20T14:55:01;0.10;;;0.10;;
19301;SDS011;9785;59.362;12.152;2023-07-20T14:57:30;0.20;;;0.20;;
19301;SDS011;9785;59.362;12.152;2023-07-20T14:59:59;0.10;;;0.10;;
19301;SDS011;9785;59.362;12.152;2023-07-20T15:02:27;0.10;;;0.10;;
19301;SDS011;9785;59.362;12.152;2023-07-20T15:04:56;0.10;;;0.10;;
19301;SDS011;9785;59.362;12.152;2023-07-20T15:07:26;0.00;;;0.00;;
19301;SDS011;9785;59.362;12.152;2023-07-20T15:09:55;0.70;;;0.10;;